PWSweather.com
Personal Weather Stations
Station Observations
DW1039
Liberty & Fairfield Townships, Hamilton, OH 45011

Liberty & Fairfield TownshipsHamilton, OH 45011

Lat: 39.3933, Lon: -84.477

Elevation: 780

Station Type: Davis Vantage Pro2 (Daytime Fan Aspirated)

http://www.lfweathercenter.com/

Latest ConditionsUpdated 6:30:14 PM EDT Monday, Oct 15, 2018
Currently Today's Max Today's Min Today's Average
Temperature 48.0°F8.9°C 56.2°F13.4°C 48.0°F8.9°C 53.8°F12.1°C
Dew Point 43.1°F6.2°C 51.8°F11.0°C 43.1°F6.2°C 49.5°F9.7°C
Winds Calm Calm 4.0 mph -6.4 kmh - - 1.0 mph 1.6 kmh
Wind Gusts 6.0 mph9.7 kmh 10.0 mph16.1 kmh - -
Humidity 83% 89% 83% 85%
Pressure 30.20 in1022.7 mb 30.20 in1022.7 mb 29.95 in1014.2 mb -
Hour Temp Dew Point Humidity Winds Wind Gusts Pressure Precip Precip Rate Daily Precip Total
06:30 PM 48.0°F8.9°C 43.1°F6.2°C 83% Calm Calm 6.0 mph9.7 kmh 30.20 in1022.7 mb 0.00 in0.0 mm 0.00 in0.0 mm 0.21 in5.3 mm
06:20 PM 48.2°F9.0°C 43.3°F6.3°C 83% 2.0 mph S3.2 kmh S 3.0 mph4.8 kmh 30.20 in1022.7 mb 0.00 in0.0 mm 0.00 in0.0 mm 0.21 in5.3 mm
06:10 PM 48.3°F9.1°C 43.7°F6.5°C 84% 1.0 mph ESE1.6 kmh ESE 4.0 mph6.4 kmh 30.19 in1022.4 mb 0.00 in0.0 mm 0.00 in0.0 mm 0.21 in5.3 mm
06:00 PM 48.5°F9.2°C 43.9°F6.6°C 84% 1.0 mph S1.6 kmh S 3.0 mph4.8 kmh 30.18 in1022.0 mb 0.00 in0.0 mm 0.00 in0.0 mm 0.21 in5.3 mm
05:50 PM 48.7°F9.3°C 44.1°F6.7°C 84% 1.0 mph WSW1.6 kmh WSW 5.0 mph8.0 kmh 30.18 in1022.0 mb 0.00 in0.0 mm 0.00 in0.0 mm 0.21 in5.3 mm
05:40 PM 49.2°F9.6°C 44.9°F7.2°C 85% 2.0 mph NW3.2 kmh NW 5.0 mph8.0 kmh 30.18 in1022.0 mb 0.00 in0.0 mm 0.00 in0.0 mm 0.21 in5.3 mm
05:30 PM 49.7°F9.8°C 45.4°F7.4°C 85% 1.0 mph S1.6 kmh S 5.0 mph8.0 kmh 30.18 in1022.0 mb 0.00 in0.0 mm 0.00 in0.0 mm 0.21 in5.3 mm
05:20 PM 50.2°F10.1°C 45.6°F7.6°C 84% Calm Calm 5.0 mph8.0 kmh 30.17 in1021.7 mb 0.00 in0.0 mm 0.00 in0.0 mm 0.21 in5.3 mm
05:10 PM 50.9°F10.5°C 46.3°F7.9°C 84% Calm Calm 6.0 mph9.7 kmh 30.18 in1022.0 mb 0.00 in0.0 mm 0.00 in0.0 mm 0.21 in5.3 mm
05:00 PM 51.4°F10.8°C 46.4°F8.0°C 83% 1.0 mph NNW1.6 kmh NNW 7.0 mph11.3 kmh 30.16 in1021.3 mb 0.00 in0.0 mm 0.00 in0.0 mm 0.21 in5.3 mm
04:50 PM 51.9°F11.1°C 46.9°F8.3°C 83% 1.0 mph NE1.6 kmh NE 10.0 mph16.1 kmh 30.16 in1021.3 mb 0.00 in0.0 mm 0.00 in0.0 mm 0.21 in5.3 mm
04:40 PM 52.3°F11.3°C 47.3°F8.5°C 83% 1.0 mph N1.6 kmh N 4.0 mph6.4 kmh 30.15 in1021.0 mb 0.00 in0.0 mm 0.00 in0.0 mm 0.21 in5.3 mm
04:30 PM 52.5°F11.4°C 47.5°F8.6°C 83% 2.0 mph S3.2 kmh S 3.0 mph4.8 kmh 30.15 in1021.0 mb 0.00 in0.0 mm 0.00 in0.0 mm 0.21 in5.3 mm
04:20 PM 52.6°F11.4°C 47.6°F8.7°C 83% 2.0 mph S3.2 kmh S 4.0 mph6.4 kmh 30.16 in1021.3 mb 0.00 in0.0 mm 0.00 in0.0 mm 0.21 in5.3 mm
04:10 PM 52.8°F11.6°C 47.8°F8.8°C 83% Calm Calm 3.0 mph4.8 kmh 30.15 in1021.0 mb 0.00 in0.0 mm 0.00 in0.0 mm 0.21 in5.3 mm
04:00 PM 52.8°F11.6°C 47.8°F8.8°C 83% 3.0 mph NW4.8 kmh NW 5.0 mph8.0 kmh 30.15 in1021.0 mb 0.00 in0.0 mm 0.00 in0.0 mm 0.21 in5.3 mm
03:50 PM 52.9°F11.6°C 48.5°F9.2°C 85% 2.0 mph SW3.2 kmh SW 3.0 mph4.8 kmh 30.14 in1020.7 mb 0.00 in0.0 mm 0.00 in0.0 mm 0.21 in5.3 mm
03:40 PM 52.9°F11.6°C 48.8°F9.3°C 86% 2.0 mph S3.2 kmh S 4.0 mph6.4 kmh 30.14 in1020.7 mb 0.00 in0.0 mm 0.00 in0.0 mm 0.21 in5.3 mm
03:30 PM 52.5°F11.4°C 48.4°F9.1°C 86% 1.0 mph ENE1.6 kmh ENE 5.0 mph8.0 kmh 30.15 in1021.0 mb 0.00 in0.0 mm 0.00 in0.0 mm 0.21 in5.3 mm
03:20 PM 52.3°F11.3°C 48.2°F9.0°C 86% Calm Calm 3.0 mph4.8 kmh 30.14 in1020.7 mb 0.00 in0.0 mm 0.00 in0.0 mm 0.21 in5.3 mm
03:10 PM 52.5°F11.4°C 48.4°F9.1°C 86% 2.0 mph NNW3.2 kmh NNW 4.0 mph6.4 kmh 30.14 in1020.7 mb 0.00 in0.0 mm 0.00 in0.0 mm 0.21 in5.3 mm
03:00 PM 52.7°F11.5°C 49.0°F9.4°C 87% 3.0 mph NW4.8 kmh NW 5.0 mph8.0 kmh 30.13 in1020.3 mb 0.00 in0.0 mm 0.00 in0.0 mm 0.21 in5.3 mm
02:50 PM 52.7°F11.5°C 49.3°F9.6°C 88% 2.0 mph SW3.2 kmh SW 4.0 mph6.4 kmh 30.12 in1020.0 mb 0.00 in0.0 mm 0.00 in0.0 mm 0.21 in5.3 mm
02:40 PM 52.5°F11.4°C 49.4°F9.7°C 89% 3.0 mph SSE4.8 kmh SSE 6.0 mph9.7 kmh 30.12 in1020.0 mb 0.00 in0.0 mm 0.00 in0.0 mm 0.21 in5.3 mm
02:30 PM 52.2°F11.2°C 49.1°F9.5°C 89% 1.0 mph SSW1.6 kmh SSW 6.0 mph9.7 kmh 30.13 in1020.3 mb 0.00 in0.0 mm 0.00 in0.0 mm 0.21 in5.3 mm
02:20 PM 52.1°F11.2°C 49.0°F9.4°C 89% 2.0 mph WNW3.2 kmh WNW 6.0 mph9.7 kmh 30.12 in1020.0 mb 0.00 in0.0 mm 0.00 in0.0 mm 0.21 in5.3 mm
02:10 PM 52.3°F11.3°C 48.9°F9.4°C 88% 2.0 mph SSE3.2 kmh SSE 4.0 mph6.4 kmh 30.12 in1020.0 mb 0.00 in0.0 mm 0.00 in0.0 mm 0.21 in5.3 mm
02:00 PM 52.0°F11.1°C 48.6°F9.2°C 88% 1.0 mph S1.6 kmh S 4.0 mph6.4 kmh 30.13 in1020.3 mb 0.00 in0.0 mm 0.00 in0.0 mm 0.21 in5.3 mm
01:50 PM 51.9°F11.1°C 48.2°F9.0°C 87% 1.0 mph N1.6 kmh N 4.0 mph6.4 kmh 30.12 in1020.0 mb 0.00 in0.0 mm 0.00 in0.0 mm 0.21 in5.3 mm
01:40 PM 51.9°F11.1°C 48.2°F9.0°C 87% 1.0 mph S1.6 kmh S 5.0 mph8.0 kmh 30.12 in1020.0 mb 0.00 in0.0 mm 0.00 in0.0 mm 0.21 in5.3 mm
01:30 PM 52.3°F11.3°C 48.2°F9.0°C 86% Calm Calm 4.0 mph6.4 kmh 30.13 in1020.3 mb 0.00 in0.0 mm 0.00 in0.0 mm 0.21 in5.3 mm
01:20 PM 52.0°F11.1°C 48.0°F8.9°C 86% 1.0 mph SSE1.6 kmh SSE 7.0 mph11.3 kmh 30.13 in1020.3 mb 0.00 in0.0 mm 0.00 in0.0 mm 0.21 in5.3 mm
01:10 PM 52.1°F11.2°C 48.1°F8.9°C 86% Calm Calm 3.0 mph4.8 kmh 30.12 in1020.0 mb 0.00 in0.0 mm 0.00 in0.0 mm 0.21 in5.3 mm
01:00 PM 51.7°F10.9°C 47.7°F8.7°C 86% 1.0 mph S1.6 kmh S 5.0 mph8.0 kmh 30.12 in1020.0 mb 0.00 in0.0 mm 0.00 in0.0 mm 0.21 in5.3 mm
12:50 PM 51.6°F10.9°C 47.6°F8.7°C 86% 1.0 mph SW1.6 kmh SW 2.0 mph3.2 kmh 30.11 in1019.6 mb 0.00 in0.0 mm 0.00 in0.0 mm 0.21 in5.3 mm
12:40 PM 51.9°F11.1°C 47.9°F8.8°C 86% 1.0 mph ENE1.6 kmh ENE 3.0 mph4.8 kmh 30.11 in1019.6 mb 0.00 in0.0 mm 0.00 in0.0 mm 0.21 in5.3 mm
12:30 PM 52.1°F11.2°C 48.1°F8.9°C 86% 3.0 mph S4.8 kmh S 4.0 mph6.4 kmh 30.10 in1019.3 mb 0.00 in0.0 mm 0.00 in0.0 mm 0.21 in5.3 mm
12:20 PM 52.2°F11.2°C 48.2°F9.0°C 86% Calm Calm 4.0 mph6.4 kmh 30.11 in1019.6 mb 0.01 in0.3 mm 0.00 in0.0 mm 0.21 in5.3 mm
12:10 PM 52.6°F11.4°C 48.5°F9.2°C 86% Calm Calm 5.0 mph8.0 kmh 30.11 in1019.6 mb 0.01 in0.3 mm 0.00 in0.0 mm 0.21 in5.3 mm
12:00 PM 52.6°F11.4°C 48.5°F9.2°C 86% 2.0 mph NNW3.2 kmh NNW 3.0 mph4.8 kmh 30.11 in1019.6 mb 0.02 in0.5 mm 0.00 in0.0 mm 0.21 in5.3 mm
11:50 AM 52.9°F11.6°C 48.8°F9.3°C 86% Calm Calm 3.0 mph4.8 kmh 30.10 in1019.3 mb 0.03 in0.8 mm 0.00 in0.0 mm 0.21 in5.3 mm
11:40 AM 54.1°F12.3°C 49.7°F9.8°C 85% 2.0 mph NE3.2 kmh NE 5.0 mph8.0 kmh 30.09 in1019.0 mb 0.03 in0.8 mm 0.00 in0.0 mm 0.21 in5.3 mm
11:30 AM 53.9°F12.2°C 49.5°F9.7°C 85% 1.0 mph ESE1.6 kmh ESE 2.0 mph3.2 kmh 30.09 in1019.0 mb 0.03 in0.8 mm 0.06 in1.5 mm 0.21 in5.3 mm
11:20 AM 54.0°F12.2°C 49.6°F9.8°C 85% 1.0 mph SSE1.6 kmh SSE 3.0 mph4.8 kmh 30.09 in1019.0 mb 0.02 in0.5 mm 0.00 in0.0 mm 0.20 in5.1 mm
11:10 AM 53.9°F12.2°C 49.5°F9.7°C 85% 2.0 mph SSE3.2 kmh SSE 3.0 mph4.8 kmh 30.09 in1019.0 mb 0.02 in0.5 mm 0.06 in1.5 mm 0.20 in5.1 mm
11:00 AM 53.9°F12.2°C 49.5°F9.7°C 85% Calm Calm 3.0 mph4.8 kmh 30.08 in1018.6 mb 0.01 in0.3 mm 0.01 in0.3 mm 0.19 in4.8 mm
10:50 AM 54.1°F12.3°C 49.7°F9.8°C 85% 1.0 mph S1.6 kmh S 5.0 mph8.0 kmh 30.09 in1019.0 mb 0.00 in0.0 mm 0.00 in0.0 mm 0.18 in4.6 mm
10:40 AM 54.1°F12.3°C 49.7°F9.8°C 85% Calm Calm 3.0 mph4.8 kmh 30.09 in1019.0 mb 0.00 in0.0 mm 0.00 in0.0 mm 0.18 in4.6 mm
10:30 AM 54.1°F12.3°C 49.7°F9.8°C 85% Calm Calm 3.0 mph4.8 kmh 30.07 in1018.3 mb 0.00 in0.0 mm 0.00 in0.0 mm 0.18 in4.6 mm
10:20 AM 54.4°F12.4°C 50.0°F10.0°C 85% 2.0 mph SSE3.2 kmh SSE 3.0 mph4.8 kmh 30.08 in1018.6 mb 0.00 in0.0 mm 0.00 in0.0 mm 0.18 in4.6 mm
10:10 AM 54.6°F12.6°C 50.2°F10.1°C 85% 1.0 mph S1.6 kmh S 2.0 mph3.2 kmh 30.07 in1018.3 mb 0.00 in0.0 mm 0.00 in0.0 mm 0.18 in4.6 mm
10:00 AM 54.7°F12.6°C 50.3°F10.2°C 85% 1.0 mph WSW1.6 kmh WSW 4.0 mph6.4 kmh 30.07 in1018.3 mb 0.00 in0.0 mm 0.00 in0.0 mm 0.18 in4.6 mm
09:50 AM 54.8°F12.7°C 50.4°F10.2°C 85% 1.0 mph S1.6 kmh S 5.0 mph8.0 kmh 30.06 in1017.9 mb 0.00 in0.0 mm 0.00 in0.0 mm 0.18 in4.6 mm
09:40 AM 55.0°F12.8°C 50.6°F10.3°C 85% 1.0 mph SE1.6 kmh SE 3.0 mph4.8 kmh 30.04 in1017.3 mb 0.01 in0.3 mm 0.00 in0.0 mm 0.18 in4.6 mm
09:30 AM 55.3°F12.9°C 50.9°F10.5°C 85% 1.0 mph SW1.6 kmh SW 5.0 mph8.0 kmh 30.04 in1017.3 mb 0.01 in0.3 mm 0.00 in0.0 mm 0.18 in4.6 mm
09:20 AM 55.4°F13.0°C 51.0°F10.6°C 85% 1.0 mph SE1.6 kmh SE 1.0 mph1.6 kmh 30.03 in1016.9 mb 0.01 in0.3 mm 0.00 in0.0 mm 0.18 in4.6 mm
09:10 AM 55.5°F13.1°C 51.1°F10.6°C 85% 1.0 mph S1.6 kmh S 2.0 mph3.2 kmh 30.03 in1016.9 mb 0.01 in0.3 mm 0.00 in0.0 mm 0.18 in4.6 mm
09:00 AM 55.6°F13.1°C 51.2°F10.7°C 85% Calm Calm 3.0 mph4.8 kmh 30.02 in1016.6 mb 0.01 in0.3 mm 0.00 in0.0 mm 0.18 in4.6 mm
08:50 AM 55.8°F13.2°C 51.4°F10.8°C 85% 2.0 mph S3.2 kmh S 3.0 mph4.8 kmh 30.03 in1016.9 mb 0.01 in0.3 mm 0.06 in1.5 mm 0.18 in4.6 mm
08:40 AM 55.8°F13.2°C 51.4°F10.8°C 85% 2.0 mph W3.2 kmh W 2.0 mph3.2 kmh 30.02 in1016.6 mb 0.00 in0.0 mm 0.00 in0.0 mm 0.17 in4.3 mm
08:30 AM 55.9°F13.3°C 51.5°F10.8°C 85% 2.0 mph S3.2 kmh S 2.0 mph3.2 kmh 30.02 in1016.6 mb 0.00 in0.0 mm 0.00 in0.0 mm 0.17 in4.3 mm
08:20 AM 55.9°F13.3°C 51.5°F10.8°C 85% 1.0 mph SE1.6 kmh SE 2.0 mph3.2 kmh 30.01 in1016.3 mb 0.00 in0.0 mm 0.00 in0.0 mm 0.17 in4.3 mm
08:10 AM 56.0°F13.3°C 51.6°F10.9°C 85% 1.0 mph S1.6 kmh S 4.0 mph6.4 kmh 30.01 in1016.3 mb 0.00 in0.0 mm 0.00 in0.0 mm 0.17 in4.3 mm
08:00 AM 56.1°F13.4°C 51.7°F10.9°C 85% 1.0 mph S1.6 kmh S 2.0 mph3.2 kmh 30.02 in1016.6 mb 0.00 in0.0 mm 0.00 in0.0 mm 0.17 in4.3 mm
07:50 AM 56.2°F13.4°C 51.8°F11.0°C 85% Calm Calm 4.0 mph6.4 kmh 30.01 in1016.3 mb 0.01 in0.3 mm 0.00 in0.0 mm 0.17 in4.3 mm
07:40 AM 56.2°F13.4°C 51.8°F11.0°C 85% Calm Calm 3.0 mph4.8 kmh 30.00 in1015.9 mb 0.01 in0.3 mm 0.00 in0.0 mm 0.17 in4.3 mm
07:30 AM 56.1°F13.4°C 51.7°F10.9°C 85% 1.0 mph S1.6 kmh S 4.0 mph6.4 kmh 30.00 in1015.9 mb 0.02 in0.5 mm 0.00 in0.0 mm 0.17 in4.3 mm
07:20 AM 56.0°F13.3°C 51.6°F10.9°C 85% 1.0 mph W1.6 kmh W 5.0 mph8.0 kmh 30.00 in1015.9 mb 0.02 in0.5 mm 0.00 in0.0 mm 0.17 in4.3 mm
07:10 AM 55.9°F13.3°C 51.5°F10.8°C 85% 2.0 mph SSW3.2 kmh SSW 2.0 mph3.2 kmh 29.99 in1015.6 mb 0.02 in0.5 mm 0.00 in0.0 mm 0.17 in4.3 mm
07:00 AM 55.7°F13.2°C 51.3°F10.7°C 85% 2.0 mph S3.2 kmh S 3.0 mph4.8 kmh 29.97 in1014.9 mb 0.04 in1.0 mm 0.00 in0.0 mm 0.17 in4.3 mm
06:50 AM 55.7°F13.2°C 51.3°F10.7°C 85% Calm Calm 2.0 mph3.2 kmh 29.95 in1014.2 mb 0.10 in2.5 mm 0.00 in0.0 mm 0.17 in4.3 mm
06:40 AM 55.6°F13.1°C 51.2°F10.7°C 85% 1.0 mph S1.6 kmh S 2.0 mph3.2 kmh 29.97 in1014.9 mb 0.13 in3.3 mm 0.00 in0.0 mm 0.17 in4.3 mm
06:30 AM 55.6°F13.1°C 51.2°F10.7°C 85% 1.0 mph S1.6 kmh S 4.0 mph6.4 kmh 29.99 in1015.6 mb 0.14 in3.6 mm 0.00 in0.0 mm 0.17 in4.3 mm
06:20 AM 55.6°F13.1°C 51.2°F10.7°C 85% 3.0 mph S4.8 kmh S 4.0 mph6.4 kmh 29.99 in1015.6 mb 0.15 in3.8 mm 0.00 in0.0 mm 0.17 in4.3 mm
06:10 AM 55.5°F13.1°C 51.1°F10.6°C 85% 1.0 mph S1.6 kmh S 3.0 mph4.8 kmh 29.99 in1015.6 mb 0.16 in4.1 mm 0.12 in3.0 mm 0.17 in4.3 mm
06:00 AM 55.6°F13.1°C 51.2°F10.7°C 85% Calm Calm 4.0 mph6.4 kmh 29.99 in1015.6 mb 0.14 in3.6 mm 0.07 in1.8 mm 0.15 in3.8 mm
05:50 AM 55.7°F13.2°C 51.3°F10.7°C 85% 1.0 mph SSW1.6 kmh SSW 4.0 mph6.4 kmh 30.01 in1016.3 mb 0.08 in2.0 mm 0.24 in6.1 mm 0.09 in2.3 mm
05:40 AM 55.8°F13.2°C 51.4°F10.8°C 85% Calm Calm 4.0 mph6.4 kmh 29.99 in1015.6 mb 0.04 in1.0 mm 0.12 in3.0 mm 0.05 in1.3 mm
05:30 AM 55.8°F13.2°C 51.4°F10.8°C 85% 2.0 mph S3.2 kmh S 3.0 mph4.8 kmh 29.98 in1015.2 mb 0.02 in0.5 mm 0.06 in1.5 mm 0.03 in0.8 mm
05:20 AM 55.8°F13.2°C 51.4°F10.8°C 85% 4.0 mph S6.4 kmh S 4.0 mph6.4 kmh 29.98 in1015.2 mb 0.01 in0.3 mm 0.06 in1.5 mm 0.02 in0.5 mm
05:10 AM 55.7°F13.2°C 51.3°F10.7°C 85% Calm Calm 2.0 mph3.2 kmh 29.98 in1015.2 mb 0.00 in0.0 mm 0.00 in0.0 mm 0.01 in0.3 mm
05:00 AM 55.7°F13.2°C 51.3°F10.7°C 85% Calm Calm 3.0 mph4.8 kmh 29.98 in1015.2 mb 0.00 in0.0 mm 0.00 in0.0 mm 0.01 in0.3 mm
04:50 AM 55.6°F13.1°C 51.2°F10.7°C 85% Calm Calm 2.0 mph3.2 kmh 29.98 in1015.2 mb 0.00 in0.0 mm 0.00 in0.0 mm 0.01 in0.3 mm
04:40 AM 55.5°F13.1°C 51.1°F10.6°C 85% 1.0 mph SSW1.6 kmh SSW 2.0 mph3.2 kmh 29.97 in1014.9 mb 0.00 in0.0 mm 0.00 in0.0 mm 0.01 in0.3 mm
04:30 AM 55.5°F13.1°C 51.1°F10.6°C 85% 1.0 mph SSW1.6 kmh SSW 2.0 mph3.2 kmh 29.97 in1014.9 mb 0.00 in0.0 mm 0.00 in0.0 mm 0.01 in0.3 mm
04:20 AM 55.4°F13.0°C 51.0°F10.6°C 85% 1.0 mph SSW1.6 kmh SSW 2.0 mph3.2 kmh 29.97 in1014.9 mb 0.00 in0.0 mm 0.00 in0.0 mm 0.01 in0.3 mm
04:10 AM 55.4°F13.0°C 51.0°F10.6°C 85% 1.0 mph SW1.6 kmh SW 2.0 mph3.2 kmh 29.97 in1014.9 mb 0.00 in0.0 mm 0.00 in0.0 mm 0.01 in0.3 mm
04:00 AM 55.4°F13.0°C 51.0°F10.6°C 85% Calm Calm 2.0 mph3.2 kmh 29.98 in1015.2 mb 0.00 in0.0 mm 0.00 in0.0 mm 0.01 in0.3 mm
03:50 AM 55.3°F12.9°C 50.9°F10.5°C 85% 2.0 mph SW3.2 kmh SW 2.0 mph3.2 kmh 29.97 in1014.9 mb 0.00 in0.0 mm 0.00 in0.0 mm 0.01 in0.3 mm
03:40 AM 55.4°F13.0°C 51.0°F10.6°C 85% 2.0 mph S3.2 kmh S 2.0 mph3.2 kmh 29.97 in1014.9 mb 0.00 in0.0 mm 0.00 in0.0 mm 0.01 in0.3 mm
03:30 AM 55.4°F13.0°C 51.0°F10.6°C 85% 2.0 mph S3.2 kmh S 2.0 mph3.2 kmh 29.98 in1015.2 mb 0.00 in0.0 mm 0.00 in0.0 mm 0.01 in0.3 mm
03:20 AM 55.3°F12.9°C 50.9°F10.5°C 85% Calm Calm 3.0 mph4.8 kmh 29.97 in1014.9 mb 0.00 in0.0 mm 0.00 in0.0 mm 0.01 in0.3 mm
03:10 AM 55.1°F12.8°C 50.7°F10.4°C 85% Calm Calm 1.0 mph1.6 kmh 29.97 in1014.9 mb 0.00 in0.0 mm 0.00 in0.0 mm 0.01 in0.3 mm
03:00 AM 55.0°F12.8°C 50.6°F10.3°C 85% Calm Calm 1.0 mph1.6 kmh 29.98 in1015.2 mb 0.00 in0.0 mm 0.00 in0.0 mm 0.01 in0.3 mm
02:50 AM 55.0°F12.8°C 50.6°F10.3°C 85% Calm Calm -- 29.98 in1015.2 mb 0.00 in0.0 mm 0.00 in0.0 mm 0.01 in0.3 mm
02:40 AM 54.9°F12.7°C 50.5°F10.3°C 85% 1.0 mph S1.6 kmh S 2.0 mph3.2 kmh 29.99 in1015.6 mb 0.00 in0.0 mm 0.00 in0.0 mm 0.01 in0.3 mm
02:30 AM 54.8°F12.7°C 50.4°F10.2°C 85% Calm Calm 1.0 mph1.6 kmh 29.98 in1015.2 mb 0.00 in0.0 mm 0.00 in0.0 mm 0.01 in0.3 mm
02:20 AM 54.8°F12.7°C 50.4°F10.2°C 85% Calm Calm -- 29.98 in1015.2 mb 0.00 in0.0 mm 0.00 in0.0 mm 0.01 in0.3 mm
02:10 AM 54.8°F12.7°C 50.4°F10.2°C 85% Calm Calm 1.0 mph1.6 kmh 29.99 in1015.6 mb 0.00 in0.0 mm 0.00 in0.0 mm 0.01 in0.3 mm
02:00 AM 54.7°F12.6°C 50.3°F10.2°C 85% Calm Calm -- 29.98 in1015.2 mb 0.00 in0.0 mm 0.00 in0.0 mm 0.01 in0.3 mm
01:50 AM 54.6°F12.6°C 50.5°F10.3°C 86% Calm Calm -- 29.98 in1015.2 mb 0.00 in0.0 mm 0.00 in0.0 mm 0.01 in0.3 mm
01:40 AM 54.6°F12.6°C 50.5°F10.3°C 86% 1.0 mph S1.6 kmh S 1.0 mph1.6 kmh 29.98 in1015.2 mb 0.00 in0.0 mm 0.00 in0.0 mm 0.01 in0.3 mm
01:30 AM 54.5°F12.5°C 50.4°F10.2°C 86% Calm Calm 1.0 mph1.6 kmh 29.98 in1015.2 mb 0.00 in0.0 mm 0.00 in0.0 mm 0.01 in0.3 mm
01:20 AM 54.5°F12.5°C 50.4°F10.2°C 86% Calm Calm 3.0 mph4.8 kmh 29.98 in1015.2 mb 0.00 in0.0 mm 0.00 in0.0 mm 0.01 in0.3 mm
01:10 AM 54.4°F12.4°C 50.3°F10.2°C 86% 1.0 mph ESE1.6 kmh ESE 2.0 mph3.2 kmh 29.98 in1015.2 mb 0.00 in0.0 mm 0.00 in0.0 mm 0.01 in0.3 mm
01:00 AM 54.3°F12.4°C 50.2°F10.1°C 86% Calm Calm -- 29.98 in1015.2 mb 0.01 in0.3 mm 0.00 in0.0 mm 0.01 in0.3 mm
12:50 AM 54.2°F12.3°C 50.1°F10.1°C 86% Calm Calm -- 29.98 in1015.2 mb 0.01 in0.3 mm 0.00 in0.0 mm 0.01 in0.3 mm
12:40 AM 54.1°F12.3°C 50.0°F10.0°C 86% Calm Calm -- 29.99 in1015.6 mb 0.01 in0.3 mm 0.00 in0.0 mm 0.01 in0.3 mm
12:30 AM 54.1°F12.3°C 50.0°F10.0°C 86% Calm Calm 1.0 mph1.6 kmh 30.00 in1015.9 mb 0.01 in0.3 mm 0.00 in0.0 mm 0.01 in0.3 mm
12:20 AM 54.0°F12.2°C 49.9°F9.9°C 86% Calm Calm 2.0 mph3.2 kmh 30.00 in1015.9 mb 0.01 in0.3 mm 0.00 in0.0 mm 0.01 in0.3 mm
12:10 AM 53.9°F12.2°C 49.8°F9.9°C 86% Calm Calm -- 30.00 in1015.9 mb 0.01 in0.3 mm 0.06 in1.5 mm 0.01 in0.3 mm
12:00 AM 53.9°F12.2°C 49.8°F9.9°C 86% Calm Calm -- 30.00 in1015.9 mb 0.00 in0.0 mm 0.00 in0.0 mm 0.00 in0.0 mm